createdAt,value
2022-12-23T00:02:34.327Z,38.83
2022-12-23T00:05:40.327Z,37.27
2022-12-23T00:08:43.254Z,36.67
2022-12-23T00:12:12.052Z,38.08
2022-12-23T00:15:14.731Z,37.63
2022-12-23T00:18:18.231Z,38.10
2022-12-23T00:21:21.137Z,36.67
2022-12-23T00:24:23.709Z,38.90
2022-12-23T00:27:26.353Z,36.80
2022-12-23T00:30:29.061Z,36.28
2022-12-23T00:33:34.519Z,36.42
2022-12-23T00:36:38.429Z,37.13
2022-12-23T00:40:05.923Z,34.47
2022-12-23T00:43:09.272Z,37.53
2022-12-23T00:46:11.994Z,33.88
2022-12-23T00:49:34.822Z,34.75
2022-12-23T00:52:37.344Z,35.87
2022-12-23T00:55:39.751Z,36.23
2022-12-23T00:58:42.573Z,36.95
2022-12-23T01:02:03.868Z,34.80
2022-12-23T01:05:42.269Z,35.00
2022-12-23T01:08:44.774Z,32.73
2022-12-23T01:11:47.231Z,34.42
2022-12-23T01:14:49.795Z,36.78
2022-12-23T01:17:52.353Z,36.40
2022-12-23T01:20:54.918Z,34.17
2022-12-23T01:23:57.662Z,35.80
2022-12-23T01:27:00.771Z,35.97
2022-12-23T01:30:03.967Z,35.17
2022-12-23T01:33:06.597Z,35.63
2022-12-23T01:36:10.701Z,36.70
2022-12-23T01:39:13.356Z,36.00
2022-12-23T01:42:37.204Z,34.65
2022-12-23T01:45:39.710Z,34.22
2022-12-23T01:48:46.044Z,33.97
2022-12-23T01:51:48.678Z,33.83
2022-12-23T01:54:51.850Z,33.75
2022-12-23T01:57:57.232Z,34.80
2022-12-23T02:01:19.663Z,35.30
2022-12-23T02:04:25.474Z,35.63
2022-12-23T02:07:46.811Z,36.27
2022-12-23T02:11:13.483Z,35.80
2022-12-23T02:14:35.619Z,35.55
2022-12-23T02:18:05.742Z,35.60
2022-12-23T02:21:40.285Z,33.03
2022-12-23T02:25:04.751Z,34.23
2022-12-23T02:28:33.105Z,33.75
2022-12-23T02:31:41.558Z,33.10
2022-12-23T02:34:59.710Z,31.92
2022-12-23T02:38:23.382Z,33.07
2022-12-23T02:41:31.679Z,34.58
2022-12-23T02:44:59.164Z,34.47
2022-12-23T02:48:27.164Z,34.38
2022-12-23T02:51:35.053Z,34.35
2022-12-23T02:54:43.306Z,33.50
2022-12-23T02:57:49.479Z,34.45
2022-12-23T03:00:54.452Z,34.03
2022-12-23T03:03:57.027Z,36.10
2022-12-23T03:07:04.473Z,36.07
2022-12-23T03:10:31.183Z,35.22
2022-12-23T03:13:36.565Z,36.30
2022-12-23T03:16:44.831Z,35.80
2022-12-23T03:19:58.213Z,34.97
2022-12-23T03:23:21.259Z,36.67
2022-12-23T03:26:34.426Z,35.60
2022-12-23T03:29:53.361Z,35.70
2022-12-23T03:33:01.669Z,35.47
2022-12-23T03:36:13.199Z,36.17
2022-12-23T03:39:20.106Z,35.47
2022-12-23T03:42:29.040Z,35.15
2022-12-23T03:45:41.800Z,36.78
2022-12-23T03:49:08.783Z,35.25
2022-12-23T03:52:21.458Z,35.90
2022-12-23T03:55:40.643Z,35.08
2022-12-23T03:58:47.816Z,36.35
2022-12-23T04:02:22.178Z,35.67
2022-12-23T04:05:36.025Z,33.50
2022-12-23T04:08:39.934Z,33.43
2022-12-23T04:11:42.568Z,34.72
2022-12-23T04:14:49.229Z,37.05
2022-12-23T04:17:53.534Z,36.13
2022-12-23T04:20:59.742Z,37.20
2022-12-23T04:24:02.101Z,36.53
2022-12-23T04:27:05.121Z,35.13
2022-12-23T04:30:10.047Z,34.97
2022-12-23T04:33:13.002Z,35.22
2022-12-23T04:36:15.414Z,35.57
2022-12-23T04:39:17.931Z,36.05
2022-12-23T04:42:20.363Z,35.60
2022-12-23T04:45:22.805Z,36.25
2022-12-23T04:48:25.296Z,33.57
2022-12-23T04:51:27.860Z,34.88
2022-12-23T04:54:30.287Z,36.20
2022-12-23T04:57:32.798Z,33.33
2022-12-23T05:00:39.734Z,32.23
2022-12-23T05:03:42.715Z,32.22
2022-12-23T05:06:45.252Z,33.70
2022-12-23T05:09:47.816Z,33.38
2022-12-23T05:12:50.269Z,33.07
2022-12-23T05:15:54.140Z,30.17
2022-12-23T05:18:56.737Z,32.35
2022-12-23T05:21:59.277Z,30.77
2022-12-23T05:25:01.704Z,31.35
2022-12-23T05:28:05.494Z,27.77
2022-12-23T05:31:10.699Z,33.45
2022-12-23T05:34:13.325Z,32.88
2022-12-23T05:37:15.765Z,32.90
2022-12-23T05:40:23.850Z,35.67
2022-12-23T05:43:28.053Z,33.75
2022-12-23T05:46:30.620Z,35.03
2022-12-23T05:49:33.170Z,34.90
2022-12-23T05:52:35.812Z,33.70
2022-12-23T05:55:38.308Z,34.42
2022-12-23T05:58:41.313Z,30.83
2022-12-23T06:01:43.886Z,32.37
2022-12-23T06:04:46.474Z,31.10
2022-12-23T06:07:48.930Z,32.35
2022-12-23T06:10:54.421Z,31.40
2022-12-23T06:13:56.892Z,29.33
2022-12-23T06:16:59.388Z,30.33
2022-12-23T06:20:02.102Z,29.83
2022-12-23T06:23:05.038Z,28.95
2022-12-23T06:26:07.506Z,27.42
2022-12-23T06:29:11.187Z,29.17
2022-12-23T06:32:13.879Z,28.40
2022-12-23T06:35:16.464Z,30.67
2022-12-23T06:38:18.957Z,32.55
2022-12-23T06:41:21.618Z,31.30
2022-12-23T06:44:24.317Z,28.73
2022-12-23T06:47:26.707Z,26.20
2022-12-23T06:50:29.967Z,26.02
2022-12-23T06:53:32.510Z,26.73
2022-12-23T06:56:35.003Z,26.97
2022-12-23T06:59:37.478Z,25.63
2022-12-23T07:02:40.399Z,28.58
2022-12-23T07:05:42.865Z,23.40
2022-12-23T07:08:45.380Z,23.85
2022-12-23T07:11:48.409Z,25.83
2022-12-23T07:14:51.048Z,24.35
2022-12-23T07:17:54.585Z,25.13
2022-12-23T07:21:00.120Z,27.73
2022-12-23T07:24:03.061Z,26.03
2022-12-23T07:27:05.540Z,23.63
2022-12-23T07:30:08.816Z,23.30
2022-12-23T07:33:11.534Z,24.20
2022-12-23T07:36:14.047Z,22.23
2022-12-23T07:39:16.487Z,24.37
2022-12-23T07:42:45.305Z,24.00
2022-12-23T07:45:41.891Z,23.90
2022-12-23T07:48:44.412Z,23.33
2022-12-23T07:51:46.857Z,24.03
2022-12-23T07:54:49.700Z,25.10
2022-12-23T07:57:53.395Z,24.10
2022-12-23T08:01:03.776Z,24.10
2022-12-23T08:04:06.512Z,24.33
2022-12-23T08:07:08.954Z,21.60
2022-12-23T08:10:12.245Z,20.35
2022-12-23T08:13:14.747Z,19.98
2022-12-23T08:16:17.808Z,18.92
2022-12-23T08:19:20.333Z,21.33
2022-12-23T08:22:23.889Z,19.23
2022-12-23T08:25:26.246Z,22.40
2022-12-23T08:28:29.193Z,20.95
2022-12-23T08:31:32.073Z,20.27
2022-12-23T08:34:36.601Z,20.17
2022-12-23T08:37:39.088Z,19.45
2022-12-23T08:40:42.731Z,21.50
2022-12-23T08:43:45.687Z,21.77
2022-12-23T08:46:48.383Z,20.00
2022-12-23T08:49:51.172Z,21.30
2022-12-23T08:52:53.829Z,22.10
2022-12-23T08:55:56.289Z,21.05
2022-12-23T08:58:59.725Z,23.07
2022-12-23T09:02:03.686Z,23.45
2022-12-23T09:05:06.360Z,22.20
2022-12-23T09:08:09.339Z,21.10
2022-12-23T09:11:13.850Z,22.67
2022-12-23T09:14:16.286Z,21.93
2022-12-23T09:17:18.773Z,23.45
2022-12-23T09:20:21.840Z,19.98
2022-12-23T09:23:24.325Z,22.60
2022-12-23T09:26:30.116Z,21.97
2022-12-23T09:29:32.881Z,22.08
2022-12-23T09:32:35.649Z,23.10
2022-12-23T09:35:38.243Z,23.08
2022-12-23T09:38:40.961Z,24.00
2022-12-23T09:41:57.186Z,23.80
2022-12-23T09:45:26.141Z,23.83
2022-12-23T09:48:35.889Z,22.90
2022-12-23T09:51:38.719Z,21.60
2022-12-23T09:54:50.140Z,21.70
2022-12-23T09:58:03.256Z,21.55
2022-12-23T10:02:02.235Z,22.98
2022-12-23T10:05:26.448Z,22.35
2022-12-23T10:08:38.391Z,23.13
2022-12-23T10:11:44.405Z,26.90
2022-12-23T10:14:49.232Z,24.13
2022-12-23T10:17:56.881Z,27.13
2022-12-23T10:21:07.782Z,25.13
2022-12-23T10:24:38.605Z,26.15
2022-12-23T10:27:44.095Z,25.40
2022-12-23T10:34:47.895Z,22.83
2022-12-23T10:38:13.792Z,22.47
2022-12-23T10:41:28.917Z,22.52
2022-12-23T10:44:40.138Z,20.20
2022-12-23T10:47:57.920Z,22.10
2022-12-23T10:51:06.363Z,22.10
2022-12-23T10:54:20.740Z,20.23
2022-12-23T10:57:24.779Z,20.13
2022-12-23T11:00:30.291Z,18.70
2022-12-23T11:03:44.074Z,20.37
2022-12-23T11:07:10.613Z,21.07
2022-12-23T11:10:23.524Z,21.98
2022-12-23T11:13:36.322Z,21.65
2022-12-23T11:16:46.005Z,20.98
2022-12-23T11:20:07.854Z,20.23
2022-12-23T11:23:28.871Z,24.23
2022-12-23T11:26:31.400Z,22.67
2022-12-23T11:29:37.453Z,22.40
2022-12-23T11:32:42.684Z,21.23
2022-12-23T11:35:45.657Z,19.40
2022-12-23T11:38:51.926Z,23.92
2022-12-23T11:42:03.981Z,23.23
2022-12-23T11:45:07.836Z,20.52
2022-12-23T11:48:30.385Z,21.97
2022-12-23T11:51:32.944Z,21.30
2022-12-23T11:54:35.314Z,22.85
2022-12-23T11:57:48.419Z,24.15
2022-12-23T12:00:58.775Z,23.25
2022-12-23T12:04:06.314Z,23.87
2022-12-23T12:07:14.359Z,25.13
2022-12-23T12:10:26.263Z,24.60
2022-12-23T12:13:38.755Z,24.88
2022-12-23T12:17:08.251Z,22.95
2022-12-23T12:20:37.741Z,23.53
2022-12-23T12:23:44.689Z,23.00
2022-12-23T12:26:52.380Z,23.65
2022-12-23T12:30:07.655Z,22.75
2022-12-23T12:33:26.296Z,23.77
2022-12-23T12:36:44.200Z,24.73
2022-12-23T12:39:54.825Z,24.30
2022-12-23T12:43:31.655Z,24.95
2022-12-23T12:46:41.041Z,22.15
2022-12-23T12:49:51.931Z,24.27
2022-12-23T12:52:59.167Z,24.35
2022-12-23T12:56:24.635Z,24.40
2022-12-23T12:59:39.015Z,24.40
2022-12-23T13:02:56.584Z,24.52
2022-12-23T13:06:07.931Z,24.93
2022-12-23T13:09:33.530Z,23.65
2022-12-23T13:12:48.349Z,23.42
2022-12-23T13:16:02.849Z,22.52
2022-12-23T13:19:24.976Z,22.97
2022-12-23T13:22:32.393Z,23.60
2022-12-23T13:25:44.791Z,25.02
2022-12-23T13:29:11.632Z,24.70
2022-12-23T13:32:35.388Z,22.45
2022-12-23T13:36:06.086Z,23.73
2022-12-23T13:39:30.919Z,23.40
2022-12-23T13:42:42.815Z,24.52
2022-12-23T13:45:47.468Z,27.60
2022-12-23T13:48:56.786Z,28.58
2022-12-23T13:52:11.485Z,25.40
2022-12-23T13:55:53.259Z,26.23
2022-12-23T13:58:58.610Z,24.85
2022-12-23T14:02:01.081Z,23.23
2022-12-23T14:05:08.378Z,21.35
2022-12-23T14:08:24.792Z,20.13
2022-12-23T14:11:29.769Z,20.07
2022-12-23T14:14:32.539Z,20.25
2022-12-23T14:17:51.928Z,20.17
2022-12-23T14:21:32.706Z,19.23
2022-12-23T14:24:42.912Z,17.80
2022-12-23T14:28:03.386Z,22.33
2022-12-23T14:31:26.398Z,20.38
2022-12-23T14:34:32.255Z,21.55
2022-12-23T14:37:37.859Z,22.13
2022-12-23T14:40:51.047Z,23.53
2022-12-23T14:43:56.235Z,22.07
2022-12-23T14:46:59.061Z,22.10
2022-12-23T14:50:32.713Z,22.60
2022-12-23T14:53:54.148Z,21.92
2022-12-23T14:57:17.487Z,21.70
2022-12-23T15:00:20.909Z,21.67
2022-12-23T15:03:24.137Z,22.77
2022-12-23T15:06:38.133Z,22.85
2022-12-23T15:10:02.748Z,22.17
2022-12-23T15:13:07.054Z,22.20
2022-12-23T15:16:16.112Z,23.07
2022-12-23T15:19:24.697Z,22.85
2022-12-23T15:22:32.642Z,24.40
2022-12-23T15:25:40.832Z,22.52
2022-12-23T15:28:44.081Z,24.67
2022-12-23T15:31:50.799Z,23.03
2022-12-23T15:35:02.746Z,24.10
2022-12-23T15:38:06.246Z,24.38
2022-12-23T15:41:18.611Z,25.55
2022-12-23T15:44:24.428Z,26.00
2022-12-23T15:47:38.604Z,24.77
2022-12-23T15:50:42.258Z,26.50
2022-12-23T15:53:47.185Z,26.33
2022-12-23T15:56:53.421Z,26.25
2022-12-23T15:59:58.756Z,25.63
2022-12-23T16:03:03.426Z,26.27
2022-12-23T16:06:21.080Z,24.73
2022-12-23T16:09:31.744Z,25.48
2022-12-23T16:12:34.955Z,26.05
2022-12-23T16:15:37.458Z,27.43
2022-12-23T16:18:47.227Z,26.43
2022-12-23T16:21:50.674Z,26.63
2022-12-23T16:24:56.250Z,26.13
2022-12-23T16:28:12.598Z,26.52
2022-12-23T16:31:20.033Z,27.60
2022-12-23T16:34:22.599Z,31.17
2022-12-23T16:37:25.095Z,26.77
2022-12-23T16:40:32.063Z,30.83
2022-12-23T16:43:34.904Z,31.15
2022-12-23T16:46:42.124Z,33.13
2022-12-23T16:49:45.348Z,32.30
2022-12-23T16:52:47.877Z,32.60
2022-12-23T16:55:55.223Z,30.85
2022-12-23T16:59:01.213Z,29.27
2022-12-23T17:02:04.185Z,27.60
2022-12-23T17:05:08.073Z,29.20
2022-12-23T17:08:10.591Z,31.30
2022-12-23T17:11:21.686Z,29.65
2022-12-23T17:14:25.294Z,28.75
2022-12-23T17:17:27.859Z,27.50
2022-12-23T17:20:30.806Z,27.93
2022-12-23T17:23:33.234Z,27.15
2022-12-23T17:26:35.631Z,28.08
2022-12-23T17:29:38.254Z,27.33
2022-12-23T17:32:40.899Z,27.03
2022-12-23T17:35:44.159Z,21.73
2022-12-23T17:38:46.589Z,21.77
2022-12-23T17:41:49.197Z,21.95
2022-12-23T17:44:51.817Z,22.63
2022-12-23T17:47:54.741Z,22.20
2022-12-23T17:50:58.388Z,22.47
2022-12-23T17:54:00.970Z,21.95
2022-12-23T17:57:34.898Z,22.05
2022-12-23T18:00:38.914Z,23.58
2022-12-23T18:03:41.432Z,23.27
2022-12-23T18:06:44.035Z,22.07
2022-12-23T18:09:46.688Z,27.35
2022-12-23T18:12:55.262Z,24.17
2022-12-23T18:15:57.736Z,25.42
2022-12-23T18:19:00.169Z,24.97
2022-12-23T18:22:02.829Z,25.83
2022-12-23T18:25:06.429Z,26.85
2022-12-23T18:28:11.215Z,25.50
2022-12-23T18:31:20.688Z,25.50
2022-12-23T18:34:23.310Z,23.20
2022-12-23T18:37:25.837Z,24.17
2022-12-23T18:40:33.013Z,21.35
2022-12-23T18:43:36.000Z,23.55
2022-12-23T18:46:38.622Z,22.00
2022-12-23T18:49:41.081Z,20.60
2022-12-23T18:52:46.772Z,19.40
2022-12-23T18:55:49.623Z,21.23
2022-12-23T18:58:52.185Z,22.52
2022-12-23T19:01:55.252Z,22.70
2022-12-23T19:04:57.874Z,21.13
2022-12-23T19:08:00.747Z,21.50
2022-12-23T19:11:11.478Z,21.65
2022-12-23T19:14:14.654Z,21.83
2022-12-23T19:17:17.629Z,21.77
2022-12-23T19:20:24.238Z,21.47
2022-12-23T19:23:26.729Z,21.70
2022-12-23T19:26:29.261Z,21.67
2022-12-23T19:29:31.719Z,20.25
2022-12-23T19:32:34.874Z,20.67
2022-12-23T19:35:37.415Z,19.73
2022-12-23T19:38:40.691Z,19.47
2022-12-23T19:41:43.475Z,19.95
2022-12-23T19:44:46.045Z,20.13
2022-12-23T19:47:48.458Z,20.60
2022-12-23T19:51:12.199Z,22.17
2022-12-23T19:54:15.442Z,20.63
2022-12-23T19:57:18.115Z,22.70
2022-12-23T20:00:21.389Z,22.30
2022-12-23T20:03:23.925Z,21.75
2022-12-23T20:06:30.593Z,22.87
2022-12-23T20:09:33.330Z,21.10
2022-12-23T20:12:36.010Z,22.80
2022-12-23T20:15:38.500Z,23.60
2022-12-23T20:18:41.174Z,24.30
2022-12-23T20:21:45.764Z,24.93
2022-12-23T20:24:48.162Z,24.37
2022-12-23T20:27:56.764Z,24.58
2022-12-23T20:31:15.743Z,22.23
2022-12-23T20:34:18.353Z,21.73
2022-12-23T20:37:20.783Z,21.90
2022-12-23T20:40:25.839Z,23.80
2022-12-23T20:43:28.503Z,23.63
2022-12-23T20:46:31.103Z,21.65
2022-12-23T20:49:34.204Z,21.65
2022-12-23T20:52:36.802Z,22.90
2022-12-23T20:55:39.536Z,23.27
2022-12-23T20:59:02.770Z,24.25
2022-12-23T21:02:05.682Z,24.15
2022-12-23T21:05:08.528Z,25.20
2022-12-23T21:08:11.076Z,25.10
2022-12-23T21:11:15.749Z,28.03
2022-12-23T21:14:18.415Z,23.88
2022-12-23T21:17:21.251Z,23.65
2022-12-23T21:20:26.335Z,23.83
2022-12-23T21:23:29.661Z,23.17
2022-12-23T21:26:33.793Z,23.60
2022-12-23T21:29:36.314Z,21.95
2022-12-23T21:32:38.822Z,23.58
2022-12-23T21:35:41.206Z,23.45
2022-12-23T21:38:45.459Z,24.63
2022-12-23T21:41:51.061Z,24.93
2022-12-23T21:44:53.613Z,25.02
2022-12-23T21:47:56.350Z,23.15
2022-12-23T21:51:15.874Z,22.33
2022-12-23T21:54:18.674Z,20.37
2022-12-23T21:57:21.111Z,21.60
2022-12-23T22:00:27.590Z,21.45
2022-12-23T22:03:30.271Z,24.20
2022-12-23T22:06:38.799Z,24.35
2022-12-23T22:09:41.322Z,23.07
2022-12-23T22:12:43.753Z,24.53
2022-12-23T22:15:46.251Z,27.88
2022-12-23T22:18:49.762Z,26.83
2022-12-23T22:21:52.182Z,27.73
2022-12-23T22:24:54.633Z,26.57
2022-12-23T22:27:57.036Z,26.10
2022-12-23T22:31:12.511Z,27.48
2022-12-23T22:34:18.309Z,26.55
2022-12-23T22:37:20.713Z,26.33
2022-12-23T22:40:23.316Z,24.00
2022-12-23T22:43:25.954Z,22.07
2022-12-23T22:46:28.569Z,23.85
2022-12-23T22:49:31.398Z,20.98
2022-12-23T22:52:33.888Z,21.65
2022-12-23T22:55:36.353Z,22.53
2022-12-23T22:58:39.048Z,21.03
2022-12-23T23:01:41.463Z,20.77
2022-12-23T23:04:43.906Z,21.80
2022-12-23T23:07:47.654Z,21.58
2022-12-23T23:10:53.146Z,22.50
2022-12-23T23:13:56.644Z,20.13
2022-12-23T23:16:59.213Z,21.67
2022-12-23T23:20:02.238Z,21.77
2022-12-23T23:23:04.858Z,19.80
2022-12-23T23:26:11.139Z,22.70
2022-12-23T23:29:13.523Z,22.03
2022-12-23T23:32:16.147Z,20.95
2022-12-23T23:35:19.157Z,22.42
2022-12-23T23:38:22.232Z,21.48
2022-12-23T23:41:24.688Z,22.17
2022-12-23T23:44:27.178Z,20.40
2022-12-23T23:47:34.455Z,21.35
2022-12-23T23:50:37.396Z,21.42
2022-12-23T23:53:40.463Z,20.80
2022-12-23T23:56:43.082Z,20.47
2022-12-23T23:59:45.849Z,20.48
